KFEW

Francis E Warren AFB Heliport

Cheyenne, Wyoming, USA
METAR KFEW 220021Z AUTO 17062G157KT 10SM SQ CLR M09/M14 A3010 RMK AO2 SLPNO $
Observed Flight Rules
Feb-22 @ 00:21 UTC (4 hours ago) Visual Flight Rules
Wind Visibility Clouds Conditions
170° at 62 knots
 Gusting to 157 knots
10 miles
  • Clear skies
  • Squalls
Temperatures Readings
Current -9°C / 16°F
Dewpoint -14°C / 7°F
Humidity 67%
Altimeter 30.1" Hg
Pressure 1019 hPa
Elevation 1878
METAR KFEW 220021Z AUTO 17062G157KT 10SM SQ CLR M09/M14 A3010 RMK AO2 SLPNO $
Observed Flight Rules
Feb-22 @ 00:21 UTC
(4 hours ago)
VFR
Wind Visibility
170° at 62 knots
 Gusting to 157 knots
10 miles
Clouds
  • Clear skies
Conditions
  • Squalls
Temperature Dewpoint
-9°C / 16°F -14°C / 7°F
Humidity Altimeter Pressure
67% 30.1" Hg 1019 hPa